createdAt,value
2023-09-07T00:01:54.272Z,8.30
2023-09-07T00:06:56.256Z,8.23
2023-09-07T00:11:58.840Z,7.45
2023-09-07T00:17:00.674Z,6.97
2023-09-07T00:22:02.570Z,7.88
2023-09-07T00:27:06.881Z,6.53
2023-09-07T00:32:08.681Z,7.93
2023-09-07T00:37:10.461Z,7.53
2023-09-07T00:42:12.234Z,8.70
2023-09-07T00:47:14.863Z,7.18
2023-09-07T00:52:18.506Z,8.70
2023-09-07T00:57:20.279Z,12.02
2023-09-07T01:02:22.208Z,8.43
2023-09-07T01:07:39.326Z,8.45
2023-09-07T01:12:41.809Z,8.65
2023-09-07T01:17:45.533Z,8.52
2023-09-07T01:22:48.074Z,8.27
2023-09-07T01:27:51.548Z,7.88
2023-09-07T01:32:53.496Z,9.63
2023-09-07T01:37:55.313Z,9.32
2023-09-07T01:42:57.072Z,8.38
2023-09-07T01:48:00.753Z,9.30
2023-09-07T01:53:04.410Z,7.95
2023-09-07T01:58:06.116Z,7.78
2023-09-07T02:03:08.042Z,8.35
2023-09-07T02:08:09.882Z,8.68
2023-09-07T02:13:12.769Z,10.63
2023-09-07T02:18:14.536Z,9.95
2023-09-07T02:23:16.352Z,10.32
2023-09-07T02:28:18.152Z,11.80
2023-09-07T02:33:20.112Z,9.23
2023-09-07T02:38:21.929Z,9.52
2023-09-07T02:43:23.803Z,9.68
2023-09-07T02:48:25.629Z,8.75
2023-09-07T02:53:27.408Z,8.90
2023-09-07T02:58:29.329Z,9.32
2023-09-07T03:03:31.301Z,9.82
2023-09-07T03:08:33.542Z,8.27
2023-09-07T03:13:35.825Z,10.13
2023-09-07T03:18:37.615Z,11.90
2023-09-07T03:23:45.205Z,11.25
2023-09-07T03:28:47.206Z,10.38
2023-09-07T03:33:49.800Z,9.23
2023-09-07T03:38:51.628Z,10.27
2023-09-07T03:43:53.339Z,13.57
2023-09-07T03:48:55.124Z,10.10
2023-09-07T03:53:56.894Z,11.85
2023-09-07T03:58:58.626Z,10.38
2023-09-07T04:04:00.420Z,10.77
2023-09-07T04:09:02.301Z,12.98
2023-09-07T04:14:04.199Z,15.27
2023-09-07T04:19:05.926Z,12.13
2023-09-07T04:24:07.890Z,13.65
2023-09-07T04:29:09.721Z,12.23
2023-09-07T04:34:11.591Z,10.65
2023-09-07T04:39:15.312Z,10.68
2023-09-07T04:44:17.037Z,11.45
2023-09-07T04:49:18.791Z,12.05
2023-09-07T04:54:20.528Z,11.38
2023-09-07T04:59:22.297Z,12.82
2023-09-07T05:04:24.183Z,12.25
2023-09-07T05:09:26.474Z,13.85
2023-09-07T05:14:28.364Z,11.93
2023-09-07T05:19:30.070Z,13.55
2023-09-07T05:24:31.890Z,14.30
2023-09-07T05:29:33.687Z,15.10
2023-09-07T05:34:35.431Z,13.40
2023-09-07T05:39:37.197Z,14.82
2023-09-07T05:44:39.207Z,16.80
2023-09-07T05:49:41.104Z,15.38
2023-09-07T05:54:42.807Z,14.05
2023-09-07T05:59:44.600Z,16.40
2023-09-07T06:04:46.670Z,15.82
2023-09-07T06:09:48.725Z,16.05
2023-09-07T06:14:50.467Z,18.15
2023-09-07T06:19:52.771Z,14.98
2023-09-07T06:24:56.024Z,14.35
2023-09-07T06:29:57.852Z,17.58
2023-09-07T06:34:59.629Z,12.88
2023-09-07T06:40:01.445Z,13.65
2023-09-07T06:45:03.877Z,14.73
2023-09-07T06:50:06.785Z,10.95
2023-09-07T06:55:08.711Z,15.40
2023-09-07T07:00:11.662Z,11.60
2023-09-07T07:05:13.792Z,10.63
2023-09-07T07:10:15.618Z,16.98
2023-09-07T07:15:17.571Z,10.65
2023-09-07T07:20:19.393Z,11.82
2023-09-07T07:25:21.207Z,9.95
2023-09-07T07:30:22.918Z,10.02
2023-09-07T07:35:24.811Z,12.55
2023-09-07T07:40:26.587Z,11.93
2023-09-07T07:45:28.419Z,10.73
2023-09-07T07:50:30.200Z,10.60
2023-09-07T07:55:32.036Z,12.82
2023-09-07T08:00:33.788Z,11.95
2023-09-07T08:05:36.029Z,15.98
2023-09-07T08:10:38.545Z,12.30
2023-09-07T08:15:40.650Z,8.55
2023-09-07T08:20:42.717Z,9.50
2023-09-07T08:25:47.788Z,8.38
2023-09-07T08:30:57.830Z,8.63
2023-09-07T08:36:01.714Z,8.38
2023-09-07T08:41:07.094Z,6.80
2023-09-07T08:46:18.771Z,13.30
2023-09-07T08:51:21.379Z,6.72
2023-09-07T08:56:23.938Z,7.45
2023-09-07T09:01:25.834Z,7.03
2023-09-07T09:06:27.679Z,9.73
2023-09-07T09:11:29.451Z,7.25
2023-09-07T09:16:31.968Z,8.10
2023-09-07T09:21:33.717Z,7.97
2023-09-07T09:26:38.438Z,5.95
2023-09-07T09:31:40.818Z,6.53
2023-09-07T09:36:44.517Z,6.28
2023-09-07T09:41:46.504Z,6.13
2023-09-07T09:46:50.723Z,7.20
2023-09-07T09:51:52.565Z,7.80
2023-09-07T09:56:55.138Z,7.30
2023-09-07T10:01:58.364Z,6.03
2023-09-07T10:07:06.245Z,6.38
2023-09-07T10:12:16.340Z,5.78
2023-09-07T10:17:24.057Z,5.07
2023-09-07T10:22:26.596Z,5.82
2023-09-07T10:27:37.719Z,5.32
2023-09-07T10:32:42.721Z,5.82
2023-09-07T10:37:49.455Z,5.30
2023-09-07T10:43:02.353Z,6.13
2023-09-07T10:48:09.312Z,6.03
2023-09-07T10:53:13.323Z,5.93
2023-09-07T10:58:30.551Z,5.03
2023-09-07T11:03:33.570Z,5.00
2023-09-07T11:08:36.048Z,6.65
2023-09-07T11:13:37.845Z,6.20
2023-09-07T11:18:41.749Z,5.32
2023-09-07T11:23:44.866Z,6.97
2023-09-07T11:28:47.955Z,10.90
2023-09-07T11:33:50.418Z,5.95
2023-09-07T11:38:52.181Z,6.32
2023-09-07T11:43:53.944Z,4.40
2023-09-07T11:48:55.704Z,4.55
2023-09-07T11:53:57.494Z,4.88
2023-09-07T11:58:59.220Z,5.13
2023-09-07T12:04:01.068Z,6.18
2023-09-07T12:09:05.121Z,6.85
2023-09-07T12:14:07.142Z,7.18
2023-09-07T12:19:10.027Z,6.43
2023-09-07T12:24:13.357Z,6.40
2023-09-07T12:29:15.199Z,7.03
2023-09-07T12:34:17.103Z,4.75
2023-09-07T12:39:18.805Z,7.82
2023-09-07T12:44:22.089Z,4.10
2023-09-07T12:49:24.000Z,11.63
2023-09-07T12:54:25.960Z,4.82
2023-09-07T12:59:27.709Z,5.72
2023-09-07T13:04:29.422Z,5.10
2023-09-07T13:09:31.123Z,3.78
2023-09-07T13:14:34.559Z,4.88
2023-09-07T13:19:37.270Z,5.18
2023-09-07T13:24:39.045Z,4.30
2023-09-07T13:29:40.772Z,3.58
2023-09-07T13:34:42.491Z,4.15
2023-09-07T13:39:44.217Z,3.75
2023-09-07T13:44:48.285Z,3.88
2023-09-07T13:49:50.008Z,4.80
2023-09-07T13:54:51.708Z,4.95
2023-09-07T13:59:53.481Z,4.72
2023-09-07T14:04:55.209Z,3.38
2023-09-07T14:09:57.146Z,4.57
2023-09-07T14:14:58.960Z,3.95
2023-09-07T14:20:00.655Z,4.85
2023-09-07T14:25:02.509Z,5.18
2023-09-07T14:30:04.548Z,3.28
2023-09-07T14:35:06.660Z,6.10
2023-09-07T14:40:09.025Z,3.05
2023-09-07T14:45:10.922Z,3.65
2023-09-07T14:50:12.629Z,6.55
2023-09-07T14:55:15.904Z,3.40
2023-09-07T15:00:17.738Z,3.80
2023-09-07T15:05:19.602Z,3.08
2023-09-07T15:10:21.467Z,4.15
2023-09-07T15:15:23.384Z,3.38
2023-09-07T15:20:25.246Z,3.65
2023-09-07T15:25:29.806Z,4.38
2023-09-07T15:30:31.582Z,4.53
2023-09-07T15:35:33.592Z,2.60
2023-09-07T15:40:35.441Z,2.50
2023-09-07T15:45:39.840Z,2.55
2023-09-07T15:50:41.754Z,3.20
2023-09-07T15:55:43.613Z,2.67
2023-09-07T16:00:46.335Z,5.88
2023-09-07T16:05:48.742Z,3.03
2023-09-07T16:10:50.479Z,2.83
2023-09-07T16:15:52.253Z,4.40
2023-09-07T16:20:53.963Z,3.53
2023-09-07T16:25:55.998Z,3.67
2023-09-07T16:30:58.934Z,4.13
2023-09-07T16:36:01.460Z,5.72
2023-09-07T16:41:06.891Z,4.00
2023-09-07T16:46:08.646Z,4.03
2023-09-07T16:51:10.416Z,4.63
2023-09-07T16:56:13.118Z,4.22
2023-09-07T17:01:14.904Z,5.32
2023-09-07T17:06:17.029Z,4.90
2023-09-07T17:11:18.827Z,5.18
2023-09-07T17:16:20.682Z,7.65
2023-09-07T17:21:22.464Z,7.07
2023-09-07T17:26:24.239Z,5.63
2023-09-07T17:31:27.367Z,5.95
2023-09-07T17:36:29.421Z,7.07
2023-09-07T17:41:36.124Z,6.63
2023-09-07T17:46:38.922Z,7.00
2023-09-07T17:51:40.685Z,6.40
2023-09-07T17:56:42.573Z,6.40
2023-09-07T18:01:44.576Z,8.35
2023-09-07T18:06:46.386Z,8.73
2023-09-07T18:11:48.115Z,7.25
2023-09-07T18:16:49.948Z,6.20
2023-09-07T18:21:51.721Z,7.43
2023-09-07T18:26:53.446Z,8.02
2023-09-07T18:31:55.416Z,5.32
2023-09-07T18:36:57.171Z,8.25
2023-09-07T18:41:58.942Z,6.57
2023-09-07T18:47:00.772Z,7.53
2023-09-07T18:52:02.669Z,7.55
2023-09-07T18:57:04.592Z,6.45
2023-09-07T19:02:06.450Z,6.30
2023-09-07T19:07:08.246Z,5.78
2023-09-07T19:12:10.046Z,5.47
2023-09-07T19:17:12.881Z,5.70
2023-09-07T19:22:14.620Z,7.75
2023-09-07T19:27:16.359Z,6.15
2023-09-07T19:32:19.250Z,5.30
2023-09-07T19:37:22.581Z,6.80
2023-09-07T19:42:25.575Z,6.13
2023-09-07T19:47:27.531Z,6.80
2023-09-07T19:52:29.449Z,7.72
2023-09-07T19:57:31.403Z,8.38
2023-09-07T20:02:33.355Z,10.45
2023-09-07T20:07:40.194Z,9.05
2023-09-07T20:12:42.033Z,5.75
2023-09-07T20:17:44.652Z,6.20
2023-09-07T20:22:46.721Z,6.97
2023-09-07T20:27:49.300Z,6.80
2023-09-07T20:32:51.500Z,8.50
2023-09-07T20:37:53.303Z,7.95
2023-09-07T20:42:58.004Z,6.22
2023-09-07T20:47:59.988Z,6.75
2023-09-07T20:53:01.865Z,6.28
2023-09-07T20:58:04.185Z,6.43
2023-09-07T21:03:06.578Z,6.88
2023-09-07T21:08:08.520Z,5.43
2023-09-07T21:13:10.499Z,8.60
2023-09-07T21:18:12.468Z,7.68
2023-09-07T21:23:14.755Z,9.13
2023-09-07T21:28:16.612Z,8.02
2023-09-07T21:33:18.430Z,8.77
2023-09-07T21:38:20.285Z,10.93
2023-09-07T21:43:22.704Z,7.80
2023-09-07T21:48:24.981Z,6.38
2023-09-07T21:53:26.825Z,8.23
2023-09-07T21:58:28.547Z,9.10
2023-09-07T22:03:30.371Z,6.60
2023-09-07T22:08:32.595Z,8.75
2023-09-07T22:13:34.663Z,8.23
2023-09-07T22:18:36.870Z,7.55
2023-09-07T22:23:43.453Z,9.18
2023-09-07T22:28:46.080Z,8.35
2023-09-07T22:33:47.853Z,6.93
2023-09-07T22:38:51.091Z,9.02
2023-09-07T22:43:53.204Z,9.07
2023-09-07T22:48:55.086Z,8.52
2023-09-07T22:53:57.104Z,7.45
2023-09-07T22:58:59.710Z,8.80
2023-09-07T23:04:01.548Z,7.60
2023-09-07T23:09:07.563Z,7.85
2023-09-07T23:14:09.936Z,9.05
2023-09-07T23:19:11.776Z,8.40
2023-09-07T23:29:30.454Z,8.38
2023-09-07T23:34:32.573Z,8.93
2023-09-07T23:39:35.185Z,8.57
2023-09-07T23:44:38.327Z,9.07
2023-09-07T23:49:40.125Z,9.23
2023-09-07T23:54:42.259Z,9.30
2023-09-07T23:59:44.149Z,9.02
